Time;durP1;ratioP1;P1;durP2;ratioP2;P2;SDS_P1;SDS_P2;PMS_P1;PMS_P2;Temp;Humidity;BMP_temperature;BMP_pressure;BME280_temperature;BME280_humidity;BME280_pressure;Samples;Min_cycle;Max_cycle;Signal;HPM_P1;HPM_P2
2022/06/27 00:02:18;;;;;;;3.13;2.30;;;17.20;99.90;;;;;;5053641;28;20098;-66
2022/06/27 00:04:44;;;;;;;4.05;2.60;;;17.20;99.90;;;;;;5057166;28;20036;-66
2022/06/27 00:07:11;;;;;;;3.85;2.60;;;17.20;99.90;;;;;;5071429;28;20028;-66
2022/06/27 00:09:37;;;;;;;7.97;2.58;;;17.20;99.90;;;;;;5071448;28;20072;-66
2022/06/27 00:12:03;;;;;;;7.15;2.90;;;17.20;99.90;;;;;;5055983;28;20040;-66
2022/06/27 00:14:29;;;;;;;4.43;2.63;;;17.20;99.90;;;;;;5056708;28;20052;-66
2022/06/27 00:16:55;;;;;;;4.03;2.72;;;17.10;99.90;;;;;;5076743;28;20072;-65
2022/06/27 00:19:20;;;;;;;3.42;2.92;;;17.20;99.90;;;;;;5071990;28;20040;-66
2022/06/27 00:21:46;;;;;;;4.00;2.35;;;17.10;99.90;;;;;;5070376;28;20047;-66
2022/06/27 00:24:11;;;;;;;3.15;2.85;;;17.10;99.90;;;;;;5057311;28;20488;-66
2022/06/27 00:26:37;;;;;;;4.68;3.00;;;17.00;99.90;;;;;;5057644;28;20048;-65
2022/06/27 00:29:03;;;;;;;3.55;2.75;;;17.00;99.90;;;;;;5068033;28;20042;-65
2022/06/27 00:31:29;;;;;;;4.03;3.10;;;17.00;99.90;;;;;;5072617;28;20420;-65
2022/06/27 00:33:54;;;;;;;3.70;2.50;;;16.90;99.90;;;;;;5072483;28;20036;-66
2022/06/27 00:36:20;;;;;;;3.60;2.85;;;17.00;99.90;;;;;;5056792;28;20428;-65
2022/06/27 00:38:45;;;;;;;3.88;2.38;;;16.90;99.90;;;;;;5056793;28;21216;-66
2022/06/27 00:41:11;;;;;;;6.70;3.67;;;16.90;99.90;;;;;;5055085;28;21950;-65
2022/06/27 00:43:36;;;;;;;5.47;2.53;;;16.90;99.90;;;;;;5038352;28;20033;-65
2022/06/27 00:46:02;;;;;;;4.88;2.47;;;16.90;99.90;;;;;;5057706;28;20457;-65
2022/06/27 00:48:28;;;;;;;4.57;2.30;;;16.90;99.90;;;;;;5057660;28;20546;-65
2022/06/27 00:50:54;;;;;;;2.75;2.10;;;16.90;99.90;;;;;;5055367;28;20048;-65
2022/06/27 00:53:19;;;;;;;3.50;2.00;;;16.90;99.90;;;;;;5057556;28;20046;-65
2022/06/27 00:55:46;;;;;;;6.13;2.30;;;17.00;99.90;;;;;;5075275;28;20048;-65
2022/06/27 00:58:11;;;;;;;5.47;2.15;;;17.00;99.90;;;;;;5072416;28;20375;-65
2022/06/27 01:00:37;;;;;;;6.55;2.45;;;17.00;99.90;;;;;;5057190;28;20050;-65
2022/06/27 01:03:03;;;;;;;6.95;2.65;;;16.90;99.90;;;;;;5073751;28;20024;-65
2022/06/27 01:05:28;;;;;;;5.47;4.00;;;16.90;99.90;;;;;;5053861;28;20469;-65
2022/06/27 01:07:54;;;;;;;4.07;3.30;;;16.90;99.90;;;;;;5060353;28;20060;-65
2022/06/27 01:10:19;;;;;;;4.15;2.90;;;16.80;99.90;;;;;;5055752;28;20052;-65
2022/06/27 01:12:48;;;;;;;4.60;2.72;;;16.80;99.90;;;;;;5055933;28;20045;-65
2022/06/27 01:15:14;;;;;;;4.20;3.08;;;16.80;99.90;;;;;;5058038;28;20044;-65
2022/06/27 01:17:40;;;;;;;5.20;3.42;;;16.80;99.90;;;;;;5056638;28;20043;-67
2022/06/27 01:20:06;;;;;;;3.80;3.10;;;16.80;99.90;;;;;;5053637;28;20037;-65
2022/06/27 01:22:32;;;;;;;3.72;2.60;;;16.80;99.90;;;;;;5075328;28;20118;-65
2022/06/27 01:24:58;;;;;;;2.95;2.60;;;16.80;99.90;;;;;;5061822;28;20127;-65
2022/06/27 01:27:23;;;;;;;5.18;2.65;;;16.80;99.90;;;;;;5052847;28;20079;-65
2022/06/27 01:29:49;;;;;;;4.97;3.30;;;16.80;99.90;;;;;;5076373;28;20115;-65
2022/06/27 01:32:15;;;;;;;4.85;2.65;;;16.80;99.90;;;;;;5067896;28;20036;-65
2022/06/27 01:34:40;;;;;;;6.75;3.08;;;16.80;99.90;;;;;;5074898;28;20040;-65
2022/06/27 01:37:07;;;;;;;5.95;3.15;;;16.80;99.90;;;;;;5056212;28;20040;-65
2022/06/27 01:39:32;;;;;;;6.00;3.17;;;16.80;99.90;;;;;;5057983;28;20044;-65
2022/06/27 01:42:01;;;;;;;4.65;3.85;;;16.80;99.90;;;;;;5074675;28;20047;-65
2022/06/27 01:44:29;;;;;;;4.63;2.70;;;16.80;99.90;;;;;;5058664;28;20049;-65
2022/06/27 01:47:03;;;;;;;4.28;2.95;;;16.80;99.90;;;;;;5058171;28;20040;-65
2022/06/27 01:49:30;;;;;;;6.25;3.20;;;16.80;99.90;;;;;;5071190;28;20055;-65
2022/06/27 01:51:57;;;;;;;4.90;3.05;;;16.80;99.90;;;;;;5073665;28;20497;-65
2022/06/27 01:54:24;;;;;;;8.52;3.95;;;16.90;99.90;;;;;;5039578;28;20043;-65
2022/06/27 01:56:51;;;;;;;5.93;3.80;;;16.90;99.90;;;;;;5070307;28;20058;-65
2022/06/27 01:59:23;;;;;;;6.82;4.47;;;17.00;99.90;;;;;;5054887;28;20573;-65
2022/06/27 02:01:49;;;;;;;5.43;4.00;;;16.90;99.90;;;;;;5074000;28;20394;-65
2022/06/27 02:04:16;;;;;;;10.40;4.50;;;16.90;99.90;;;;;;5054394;28;20040;-65
2022/06/27 02:06:43;;;;;;;4.70;4.10;;;16.90;99.90;;;;;;5056545;28;20040;-65
2022/06/27 02:09:11;;;;;;;4.18;3.75;;;16.90;99.90;;;;;;5072021;28;20044;-65
2022/06/27 02:11:37;;;;;;;7.53;3.17;;;16.90;99.90;;;;;;5056433;28;20059;-65
2022/06/27 02:14:03;;;;;;;14.80;3.85;;;16.80;99.90;;;;;;5075725;28;20468;-65
2022/06/27 02:16:29;;;;;;;9.48;3.92;;;16.90;99.90;;;;;;5075145;28;20158;-65
2022/06/27 02:18:54;;;;;;;4.20;3.33;;;16.80;99.90;;;;;;5057732;28;20036;-65
2022/06/27 02:21:22;;;;;;;8.88;3.70;;;16.80;99.90;;;;;;5056287;28;20043;-65
2022/06/27 02:23:49;;;;;;;5.85;3.45;;;16.80;99.90;;;;;;5075331;28;20036;-65
2022/06/27 02:26:15;;;;;;;5.47;3.55;;;16.80;99.90;;;;;;5076435;28;20117;-65
2022/06/27 02:28:43;;;;;;;4.32;3.22;;;16.80;99.90;;;;;;5077092;28;20498;-65
2022/06/27 02:31:10;;;;;;;5.80;3.58;;;16.70;99.90;;;;;;5054556;28;20128;-65
2022/06/27 02:33:38;;;;;;;5.45;3.88;;;16.70;99.90;;;;;;5059002;28;20048;-65
2022/06/27 02:36:05;;;;;;;5.47;3.75;;;16.70;99.90;;;;;;5075171;28;20036;-65
2022/06/27 02:38:32;;;;;;;5.72;3.15;;;16.70;99.90;;;;;;5057734;28;20131;-65
2022/06/27 02:40:59;;;;;;;5.85;3.72;;;16.70;99.90;;;;;;5055419;28;20084;-65
2022/06/27 02:43:27;;;;;;;6.50;3.38;;;16.70;99.90;;;;;;5060409;28;20586;-65
2022/06/27 02:45:54;;;;;;;6.25;3.95;;;16.70;99.90;;;;;;5073534;28;20676;-65
2022/06/27 02:48:22;;;;;;;3.83;3.40;;;16.70;99.90;;;;;;5074762;28;20039;-65
2022/06/27 02:50:54;;;;;;;3.80;3.38;;;16.70;99.90;;;;;;5073997;28;20047;-65
2022/06/27 02:53:26;;;;;;;4.95;3.28;;;16.60;99.90;;;;;;5071733;28;20028;-65
2022/06/27 02:55:54;;;;;;;5.03;3.55;;;16.60;99.90;;;;;;5055445;28;20082;-65
2022/06/27 02:58:27;;;;;;;5.22;3.30;;;16.70;99.90;;;;;;5039623;28;20099;-65
2022/06/27 03:00:53;;;;;;;4.75;3.47;;;16.60;99.90;;;;;;5068887;28;20155;-65
2022/06/27 03:03:20;;;;;;;7.75;4.20;;;16.60;99.90;;;;;;5070899;28;20040;-65
2022/06/27 03:05:55;;;;;;;4.97;3.70;;;16.50;99.90;;;;;;5075032;28;20040;-65
2022/06/27 03:08:21;;;;;;;5.53;4.15;;;16.60;99.90;;;;;;5069538;28;20044;-65
2022/06/27 03:10:47;;;;;;;5.75;3.97;;;16.50;99.90;;;;;;5041229;28;20486;-65
2022/06/27 03:13:14;;;;;;;6.10;3.95;;;16.50;99.90;;;;;;5050420;28;20044;-65
2022/06/27 03:15:39;;;;;;;6.72;4.72;;;16.50;99.90;;;;;;5054141;28;20047;-65
2022/06/27 03:18:05;;;;;;;7.25;4.55;;;16.50;99.90;;;;;;5072865;28;20036;-65
2022/06/27 03:20:31;;;;;;;5.20;4.18;;;16.50;99.90;;;;;;5072483;28;20038;-65
2022/06/27 03:22:56;;;;;;;5.45;4.40;;;16.40;99.90;;;;;;5074166;28;20036;-65
2022/06/27 03:25:22;;;;;;;7.72;4.15;;;16.50;99.90;;;;;;5069873;28;20580;-65
2022/06/27 03:27:48;;;;;;;7.13;4.50;;;16.50;99.90;;;;;;5072321;28;20127;-65
2022/06/27 03:30:14;;;;;;;6.65;5.32;;;16.50;99.90;;;;;;5051591;28;20055;-65
2022/06/27 03:32:39;;;;;;;5.53;5.03;;;16.50;99.90;;;;;;5071255;28;20036;-65
2022/06/27 03:35:05;;;;;;;7.25;5.03;;;16.50;99.90;;;;;;5073626;28;20180;-65
2022/06/27 03:37:31;;;;;;;4.68;4.28;;;16.50;99.90;;;;;;5072763;28;20038;-65
2022/06/27 03:39:56;;;;;;;5.90;4.85;;;16.50;99.90;;;;;;5056530;28;20044;-65
2022/06/27 03:42:22;;;;;;;7.10;4.70;;;16.50;99.90;;;;;;5056198;28;20084;-66
2022/06/27 03:44:47;;;;;;;7.53;5.40;;;16.60;99.90;;;;;;5057175;28;20124;-65
2022/06/27 03:47:13;;;;;;;5.85;5.30;;;16.60;99.90;;;;;;5055305;28;20482;-65
2022/06/27 03:52:23;;;;;;;7.68;6.85;;;16.60;99.90;;;;;;5056634;28;20061;-65
2022/06/27 03:54:48;;;;;;;8.38;7.45;;;16.60;99.90;;;;;;5069397;28;20063;-65
2022/06/27 03:57:14;;;;;;;7.22;6.53;;;16.60;99.90;;;;;;5049304;28;20036;-65
2022/06/27 03:59:39;;;;;;;8.20;6.03;;;16.60;99.90;;;;;;5053357;28;20418;-65
2022/06/27 04:02:05;;;;;;;7.78;6.28;;;16.60;99.90;;;;;;5069655;28;20085;-65
2022/06/27 04:04:31;;;;;;;8.13;6.35;;;16.60;99.90;;;;;;5074476;28;20036;-65
2022/06/27 04:06:56;;;;;;;8.27;6.35;;;16.60;99.90;;;;;;5055947;28;20521;-65
2022/06/27 04:09:22;;;;;;;8.30;6.82;;;16.60;99.90;;;;;;5054314;28;20052;-65
2022/06/27 04:11:47;;;;;;;7.22;6.60;;;16.60;99.90;;;;;;5052375;28;20555;-65
2022/06/27 04:14:13;;;;;;;9.05;7.65;;;16.60;99.90;;;;;;5070688;28;20509;-65
2022/06/27 04:16:39;;;;;;;11.38;9.02;;;16.70;99.90;;;;;;5064621;28;20044;-65
2022/06/27 04:19:04;;;;;;;10.05;9.00;;;16.60;99.90;;;;;;5067963;28;20044;-65
2022/06/27 04:21:32;;;;;;;11.27;9.13;;;16.60;99.90;;;;;;5068399;28;20488;-65
2022/06/27 04:23:58;;;;;;;11.30;8.75;;;16.60;99.90;;;;;;5052804;28;20104;-65
2022/06/27 04:26:24;;;;;;;10.43;8.10;;;16.60;99.90;;;;;;5065887;28;20039;-65
2022/06/27 04:28:50;;;;;;;10.75;9.23;;;16.70;99.90;;;;;;5070374;28;20126;-65
2022/06/27 04:31:16;;;;;;;12.10;9.15;;;16.70;99.90;;;;;;5049404;28;20495;-65
2022/06/27 04:33:44;;;;;;;10.23;9.13;;;16.70;99.90;;;;;;5070591;28;20040;-65
2022/06/27 04:36:10;;;;;;;9.98;8.95;;;16.70;99.90;;;;;;5064924;28;20044;-65
2022/06/27 04:38:36;;;;;;;8.85;7.80;;;16.60;99.90;;;;;;5054481;28;20048;-65
2022/06/27 04:41:02;;;;;;;9.55;8.70;;;16.70;99.90;;;;;;5073473;28;20040;-65
2022/06/27 04:43:28;;;;;;;8.50;7.50;;;16.60;99.90;;;;;;5054333;28;20486;-65
2022/06/27 04:45:54;;;;;;;7.40;6.70;;;16.60;99.90;;;;;;5054809;28;20040;-65
2022/06/27 04:48:20;;;;;;;7.10;6.50;;;16.60;99.90;;;;;;5053739;28;20205;-65
2022/06/27 04:50:47;;;;;;;6.90;6.30;;;16.50;99.90;;;;;;5055273;28;20115;-65
2022/06/27 04:53:13;;;;;;;7.55;6.68;;;16.50;99.90;;;;;;5074526;28;20035;-65
2022/06/27 04:55:39;;;;;;;7.60;6.95;;;16.70;99.90;;;;;;5072251;28;20045;-65
2022/06/27 04:58:05;;;;;;;7.78;6.95;;;16.50;99.90;;;;;;5071882;28;20073;-65
2022/06/27 05:00:31;;;;;;;8.40;7.13;;;16.60;99.90;;;;;;5056304;28;20048;-65
2022/06/27 05:02:57;;;;;;;7.53;6.97;;;16.60;99.90;;;;;;5072507;28;20048;-65
2022/06/27 05:05:22;;;;;;;8.50;6.05;;;16.60;99.90;;;;;;5050201;28;20048;-65
2022/06/27 05:07:48;;;;;;;7.32;6.55;;;16.60;99.90;;;;;;5054494;28;20040;-65
2022/06/27 05:10:14;;;;;;;7.15;6.35;;;16.60;99.90;;;;;;5071960;28;20040;-65
2022/06/27 05:12:39;;;;;;;6.85;6.30;;;16.60;99.90;;;;;;5036464;28;20048;-65
2022/06/27 05:15:05;;;;;;;8.02;6.28;;;16.60;99.90;;;;;;5058156;28;20048;-66
2022/06/27 05:17:31;;;;;;;6.15;5.65;;;16.60;99.90;;;;;;5077663;28;21265;-66
2022/06/27 05:19:56;;;;;;;6.75;5.47;;;16.70;99.90;;;;;;5076741;28;20546;-65
2022/06/27 05:22:22;;;;;;;6.25;5.75;;;16.70;99.90;;;;;;5073709;28;20125;-66
2022/06/27 05:24:50;;;;;;;7.03;6.35;;;16.70;99.90;;;;;;5077456;28;20542;-66
2022/06/27 05:27:18;;;;;;;6.97;6.28;;;16.70;99.90;;;;;;5058276;28;20039;-66
2022/06/27 05:29:44;;;;;;;6.68;6.07;;;16.70;99.90;;;;;;5059335;28;20047;-66
2022/06/27 05:32:10;;;;;;;6.50;5.90;;;16.70;99.90;;;;;;5076647;28;20078;-66
2022/06/27 05:34:36;;;;;;;5.78;5.28;;;16.70;99.90;;;;;;5059778;28;20054;-66
2022/06/27 05:37:04;;;;;;;7.32;5.32;;;16.70;99.90;;;;;;5060606;28;20036;-66
2022/06/27 05:39:30;;;;;;;7.57;5.30;;;16.70;99.90;;;;;;5058585;28;20178;-66
2022/06/27 05:42:05;;;;;;;4.85;4.35;;;16.80;99.90;;;;;;5057726;28;20040;-66
2022/06/27 05:44:31;;;;;;;4.20;3.78;;;16.80;99.90;;;;;;5078656;28;20031;-66
2022/06/27 05:46:58;;;;;;;2.97;2.67;;;16.90;99.90;;;;;;5056530;28;20040;-66
2022/06/27 05:49:24;;;;;;;2.47;2.22;;;16.90;99.90;;;;;;5076416;28;20052;-65
2022/06/27 05:51:52;;;;;;;2.17;1.98;;;17.10;99.90;;;;;;5045392;28;20127;-66
2022/06/27 05:54:18;;;;;;;3.28;2.10;;;17.00;99.90;;;;;;5073170;28;20048;-66
2022/06/27 05:56:43;;;;;;;2.33;1.60;;;17.00;99.90;;;;;;5055885;28;20032;-66
2022/06/27 05:59:09;;;;;;;2.83;1.73;;;17.00;99.90;;;;;;5054640;28;20517;-66
2022/06/27 06:01:37;;;;;;;2.92;1.63;;;17.10;99.90;;;;;;5072865;28;20048;-65
2022/06/27 06:04:05;;;;;;;2.33;1.77;;;17.10;99.90;;;;;;5060005;28;20114;-66
2022/06/27 06:06:30;;;;;;;1.45;1.10;;;17.20;99.90;;;;;;5056892;28;20173;-66
2022/06/27 06:08:57;;;;;;;1.20;1.02;;;17.10;99.90;;;;;;5070753;28;20402;-66
2022/06/27 06:11:24;;;;;;;1.35;1.02;;;17.10;99.90;;;;;;5071513;28;20051;-66
2022/06/27 06:13:52;;;;;;;1.17;0.95;;;17.10;99.90;;;;;;5077734;28;20044;-65
2022/06/27 06:16:19;;;;;;;2.25;1.63;;;17.10;99.90;;;;;;5052819;28;20051;-65
2022/06/27 06:18:52;;;;;;;1.98;1.10;;;17.10;99.90;;;;;;5075200;28;20553;-66
2022/06/27 06:21:22;;;;;;;1.92;1.60;;;17.10;99.90;;;;;;5070900;28;20051;-66
2022/06/27 06:23:49;;;;;;;4.90;1.52;;;17.10;99.90;;;;;;5055714;28;20040;-65
2022/06/27 06:26:16;;;;;;;1.42;1.05;;;17.10;99.90;;;;;;5074541;28;20042;-66
2022/06/27 06:28:48;;;;;;;4.50;1.38;;;17.00;99.90;;;;;;5059157;28;20063;-66
2022/06/27 06:31:21;;;;;;;1.50;1.35;;;17.10;99.90;;;;;;5069448;28;20055;-66
2022/06/27 06:33:48;;;;;;;1.25;1.10;;;17.10;99.90;;;;;;5057448;28;20098;-66
2022/06/27 06:36:14;;;;;;;1.88;1.48;;;17.10;99.90;;;;;;5072209;28;20047;-66
2022/06/27 06:38:39;;;;;;;4.55;1.92;;;17.40;99.90;;;;;;5075534;28;20430;-66
2022/06/27 06:41:05;;;;;;;1.58;1.30;;;17.10;99.90;;;;;;5074240;28;20398;-66
2022/06/27 06:43:31;;;;;;;1.52;1.10;;;17.10;99.90;;;;;;5075100;28;20036;-66
2022/06/27 06:45:58;;;;;;;2.08;1.35;;;17.00;99.90;;;;;;5073674;28;20032;-66
2022/06/27 06:48:24;;;;;;;2.20;1.08;;;17.00;99.90;;;;;;5072566;28;20044;-66
2022/06/27 06:50:50;;;;;;;1.02;0.82;;;17.10;99.90;;;;;;5055750;28;20093;-66
2022/06/27 06:53:16;;;;;;;1.67;1.08;;;17.10;99.90;;;;;;5071661;28;20501;-66
2022/06/27 06:55:42;;;;;;;2.40;1.10;;;17.10;99.90;;;;;;5056136;28;20044;-66
2022/06/27 06:58:09;;;;;;;2.60;1.08;;;17.20;99.90;;;;;;5057902;28;20048;-66
2022/06/27 07:00:35;;;;;;;1.92;1.35;;;17.20;99.90;;;;;;5074777;28;20642;-66
2022/06/27 07:03:01;;;;;;;1.80;1.10;;;17.20;99.90;;;;;;5059007;28;20043;-66
2022/06/27 07:05:27;;;;;;;2.33;1.63;;;17.30;99.90;;;;;;5056086;28;20599;-66
2022/06/27 07:07:53;;;;;;;3.67;1.35;;;17.30;99.90;;;;;;5074263;28;20430;-66
2022/06/27 07:10:20;;;;;;;4.20;1.35;;;17.40;99.90;;;;;;5069459;28;20050;-66
2022/06/27 07:12:47;;;;;;;1.17;1.05;;;17.50;99.90;;;;;;5053514;28;20051;-66
2022/06/27 07:15:13;;;;;;;3.72;1.10;;;17.50;99.90;;;;;;5074037;28;20036;-66
2022/06/27 07:17:44;;;;;;;2.58;1.65;;;17.50;99.90;;;;;;5075027;28;20048;-66
2022/06/27 07:20:11;;;;;;;2.30;1.02;;;17.60;99.90;;;;;;5071888;28;20037;-66
2022/06/27 07:22:38;;;;;;;3.33;1.50;;;17.60;99.90;;;;;;5054418;28;20071;-66
2022/06/27 07:25:05;;;;;;;1.65;1.52;;;17.60;99.90;;;;;;5074696;28;20119;-66
2022/06/27 07:27:32;;;;;;;4.47;1.80;;;17.60;99.90;;;;;;5057832;28;20135;-66
2022/06/27 07:29:59;;;;;;;1.75;1.65;;;17.60;99.90;;;;;;5057599;28;20090;-66
2022/06/27 07:32:25;;;;;;;3.47;2.08;;;17.70;99.90;;;;;;5057132;28;20093;-66
2022/06/27 07:34:51;;;;;;;2.30;1.67;;;17.70;99.90;;;;;;5073835;28;20560;-66
2022/06/27 07:37:18;;;;;;;3.63;1.52;;;17.70;99.90;;;;;;5053957;28;20064;-66
2022/06/27 07:39:44;;;;;;;2.25;1.65;;;17.70;99.90;;;;;;5074815;28;20147;-66
2022/06/27 07:42:09;;;;;;;2.22;1.60;;;17.70;99.90;;;;;;5076948;28;20123;-66
2022/06/27 07:44:35;;;;;;;2.35;1.73;;;17.70;99.90;;;;;;5057762;28;20070;-66
2022/06/27 07:47:03;;;;;;;1.83;1.60;;;17.70;99.90;;;;;;5057703;28;20047;-66
2022/06/27 07:49:30;;;;;;;1.80;1.63;;;17.70;99.90;;;;;;5073543;28;21700;-66
2022/06/27 07:51:56;;;;;;;2.42;1.50;;;17.60;99.90;;;;;;5076406;28;20500;-66
2022/06/27 07:54:22;;;;;;;3.33;2.00;;;17.60;99.90;;;;;;5054834;28;20048;-66
2022/06/27 07:56:50;;;;;;;2.33;1.48;;;17.60;99.90;;;;;;5054997;28;20556;-65
2022/06/27 07:59:18;;;;;;;2.08;1.77;;;17.60;99.90;;;;;;5053035;28;20043;-65
2022/06/27 08:01:44;;;;;;;1.83;1.67;;;17.70;99.90;;;;;;5058722;28;20040;-66
2022/06/27 08:04:12;;;;;;;3.67;1.95;;;17.70;99.90;;;;;;5073926;28;20028;-66
2022/06/27 08:06:37;;;;;;;3.10;2.05;;;17.70;99.90;;;;;;5058063;28;20074;-66
2022/06/27 08:09:07;;;;;;;3.92;2.35;;;17.80;99.90;;;;;;5056789;28;20658;-66
2022/06/27 08:11:38;;;;;;;3.22;2.35;;;17.80;99.90;;;;;;5074202;28;20039;-66
2022/06/27 08:14:06;;;;;;;2.30;2.05;;;17.80;99.90;;;;;;5037097;28;20051;-66
2022/06/27 08:16:34;;;;;;;3.40;1.55;;;17.90;99.90;;;;;;5057938;28;20119;-66
2022/06/27 08:19:00;;;;;;;2.53;2.10;;;18.10;99.90;;;;;;5072443;28;20695;-66
2022/06/27 08:21:27;;;;;;;3.28;2.33;;;18.10;99.90;;;;;;5074254;28;20493;-66
2022/06/27 08:23:59;;;;;;;2.20;1.90;;;18.20;99.90;;;;;;5055259;28;20568;-66
2022/06/27 08:26:25;;;;;;;4.05;2.10;;;18.40;99.90;;;;;;5039190;28;20409;-66
2022/06/27 08:28:52;;;;;;;1.48;1.30;;;18.40;99.90;;;;;;5074420;28;20040;-66
2022/06/27 08:31:19;;;;;;;2.58;2.08;;;18.40;99.90;;;;;;5072920;28;20097;-66
2022/06/27 08:33:47;;;;;;;2.20;1.83;;;18.50;99.90;;;;;;5077339;28;20062;-66
2022/06/27 08:36:15;;;;;;;2.95;1.73;;;18.50;99.90;;;;;;5073325;28;20032;-66
2022/06/27 08:38:51;;;;;;;1.67;1.52;;;18.50;99.90;;;;;;5053659;28;20393;-66
2022/06/27 08:41:18;;;;;;;1.52;1.42;;;18.50;99.90;;;;;;5054237;28;20409;-66
2022/06/27 08:43:46;;;;;;;2.15;1.60;;;18.40;99.90;;;;;;5071546;28;20032;-66
2022/06/27 08:46:15;;;;;;;2.65;1.65;;;18.40;99.90;;;;;;5068634;28;20035;-66
2022/06/27 08:48:42;;;;;;;2.28;1.58;;;18.50;99.90;;;;;;5052936;28;20071;-66
2022/06/27 08:51:09;;;;;;;3.83;1.50;;;18.50;99.90;;;;;;5068669;28;20067;-66
2022/06/27 08:53:36;;;;;;;2.53;1.45;;;18.60;99.90;;;;;;5055489;28;20062;-66
2022/06/27 08:56:02;;;;;;;2.63;1.60;;;18.70;99.90;;;;;;5071355;28;20173;-66
2022/06/27 08:58:29;;;;;;;2.15;1.42;;;18.90;99.90;;;;;;5039441;28;20581;-66
2022/06/27 09:00:56;;;;;;;1.80;1.42;;;19.00;99.90;;;;;;5073870;28;20060;-66
2022/06/27 09:03:23;;;;;;;4.22;1.92;;;19.20;99.90;;;;;;5067375;28;21742;-66
2022/06/27 09:06:10;;;;;;;3.97;1.30;;;19.50;99.90;;;;;;5073271;28;20045;-66
2022/06/27 09:08:55;;;;;;;2.28;1.38;;;19.80;99.90;;;;;;5053199;28;20069;-66
2022/06/27 09:11:32;;;;;;;1.83;1.65;;;20.00;99.90;;;;;;5069731;28;20515;-66
2022/06/27 09:13:58;;;;;;;1.75;1.55;;;19.90;99.90;;;;;;5062023;28;20139;-66
2022/06/27 09:16:24;;;;;;;1.45;1.27;;;19.90;99.90;;;;;;5055026;28;20104;-66
2022/06/27 09:18:50;;;;;;;3.83;1.63;;;20.00;99.90;;;;;;5051094;28;20636;-66
2022/06/27 09:21:16;;;;;;;1.15;0.90;;;19.90;99.90;;;;;;5051676;28;20047;-66
2022/06/27 09:23:50;;;;;;;3.70;1.05;;;19.90;99.90;;;;;;5072411;28;20059;-66
2022/06/27 09:26:34;;;;;;;1.55;0.68;;;19.80;99.90;;;;;;5056004;28;20032;-66
2022/06/27 09:29:08;;;;;;;0.70;0.50;;;19.70;99.90;;;;;;5072405;28;20108;-66
2022/06/27 09:31:45;;;;;;;2.78;1.00;;;19.70;99.90;;;;;;5055403;28;20044;-66
2022/06/27 09:34:18;;;;;;;1.48;1.20;;;19.60;99.90;;;;;;5068586;28;20476;-66
2022/06/27 09:36:52;;;;;;;2.05;1.38;;;19.50;99.90;;;;;;5071687;28;20066;-66
2022/06/27 09:39:19;;;;;;;3.97;1.90;;;19.40;99.90;;;;;;5052836;28;20090;-66
2022/06/27 09:41:57;;;;;;;1.92;1.40;;;19.40;99.90;;;;;;5071142;28;20078;-66
2022/06/27 09:44:24;;;;;;;2.30;1.40;;;19.50;99.90;;;;;;5057848;28;20518;-66
2022/06/27 09:47:03;;;;;;;3.20;1.58;;;19.40;99.90;;;;;;5073177;28;20047;-66
2022/06/27 09:49:34;;;;;;;2.42;1.85;;;19.50;99.90;;;;;;5051812;28;20036;-66
2022/06/27 09:52:13;;;;;;;3.17;2.10;;;19.50;99.90;;;;;;5075891;28;20573;-66
2022/06/27 09:54:42;;;;;;;3.13;2.22;;;19.60;99.90;;;;;;5054033;28;20081;-66
2022/06/27 09:57:10;;;;;;;2.42;1.98;;;19.60;99.90;;;;;;5076820;28;20461;-66
2022/06/27 09:59:36;;;;;;;3.45;3.15;;;19.60;99.90;;;;;;5058118;28;20082;-66
2022/06/27 10:02:04;;;;;;;2.47;2.25;;;19.60;99.90;;;;;;5058688;28;20032;-66
2022/06/27 10:04:31;;;;;;;3.03;2.40;;;19.60;99.90;;;;;;5073921;28;20072;-66
2022/06/27 10:07:00;;;;;;;2.47;2.28;;;19.70;99.90;;;;;;5076809;28;20035;-66
2022/06/27 10:09:26;;;;;;;4.22;2.45;;;19.70;99.90;;;;;;5073705;28;20044;-66
2022/06/27 10:12:21;;;;;;;2.78;2.58;;;19.70;99.90;;;;;;5055565;28;20058;-66
2022/06/27 10:15:10;;;;;;;2.45;2.25;;;19.70;99.90;;;;;;5058541;28;20058;-66
2022/06/27 10:17:38;;;;;;;2.63;2.25;;;19.70;99.90;;;;;;5075813;28;20039;-66
2022/06/27 10:20:11;;;;;;;2.63;2.25;;;19.80;99.90;;;;;;5057923;28;20040;-66
2022/06/27 10:22:38;;;;;;;2.40;1.70;;;19.70;99.90;;;;;;5072953;28;20461;-66
2022/06/27 10:25:25;;;;;;;2.40;2.20;;;19.70;99.90;;;;;;5074035;28;20044;-65
2022/06/27 10:28:20;;;;;;;6.13;2.95;;;19.70;99.90;;;;;;5075554;28;20804;-66
2022/06/27 10:30:51;;;;;;;3.30;2.55;;;19.80;99.90;;;;;;5071838;28;20077;-66
2022/06/27 10:33:25;;;;;;;3.80;2.30;;;19.70;99.90;;;;;;5071198;28;20040;-66
2022/06/27 10:36:36;;;;;;;1.83;1.40;;;19.70;99.90;;;;;;5054984;28;20054;-66
2022/06/27 10:38:53;;;;;;;3.10;2.15;;;19.60;99.90;;;;;;5066526;28;20379;-66
2022/06/27 10:41:18;;;;;;;3.15;2.47;;;19.70;99.90;;;;;;5053782;28;20059;-66
2022/06/27 10:43:53;;;;;;;5.95;3.25;;;19.70;99.90;;;;;;5073904;28;20385;-66
2022/06/27 10:46:18;;;;;;;3.63;1.90;;;19.90;99.90;;;;;;5071388;28;20038;-66
2022/06/27 10:48:46;;;;;;;3.58;2.65;;;19.80;99.90;;;;;;5074620;28;20589;-66
2022/06/27 10:51:31;;;;;;;2.05;1.58;;;19.80;99.90;;;;;;5077890;28;20094;-66
2022/06/27 10:54:06;;;;;;;8.00;2.47;;;19.90;99.90;;;;;;5061394;28;20044;-66
2022/06/27 10:56:36;;;;;;;3.58;2.40;;;20.00;99.90;;;;;;5061132;28;20044;-66
2022/06/27 10:59:27;;;;;;;4.22;2.28;;;20.00;99.90;;;;;;5072746;28;20032;-66
2022/06/27 11:01:58;;;;;;;3.63;2.10;;;20.00;99.90;;;;;;5042422;28;20109;-66
2022/06/27 11:04:28;;;;;;;2.10;1.88;;;20.00;99.90;;;;;;5054921;28;20048;-66
2022/06/27 11:06:59;;;;;;;4.07;1.73;;;20.00;99.90;;;;;;5073465;28;20055;-66
2022/06/27 11:09:37;;;;;;;1.88;1.45;;;20.00;99.90;;;;;;5053352;28;20646;-66
2022/06/27 11:12:04;;;;;;;1.52;1.40;;;20.00;99.90;;;;;;5073903;28;20043;-66
2022/06/27 11:14:30;;;;;;;2.60;2.00;;;20.10;99.90;;;;;;5075153;28;20513;-66
2022/06/27 11:16:56;;;;;;;2.75;1.85;;;20.10;99.90;;;;;;5072572;28;20389;-66
2022/06/27 11:22:22;;;;;;;2.00;1.50;;;20.20;99.90;;;;;;5071088;28;20417;-67
2022/06/27 11:24:49;;;;;;;2.53;2.08;;;20.20;99.90;;;;;;5071225;28;20050;-66
2022/06/27 11:27:15;;;;;;;3.63;2.00;;;20.00;99.90;;;;;;5075423;28;20044;-66
2022/06/27 11:32:27;;;;;;;2.58;2.30;;;19.90;99.90;;;;;;5067869;28;20051;-66
2022/06/27 11:34:53;;;;;;;2.10;1.90;;;20.00;99.90;;;;;;5058381;28;20052;-66
2022/06/27 11:37:22;;;;;;;4.25;2.22;;;20.00;99.90;;;;;;5053538;28;20138;-66
2022/06/27 11:40:01;;;;;;;2.78;1.83;;;19.90;99.90;;;;;;5072817;28;20040;-66
2022/06/27 11:42:35;;;;;;;4.53;2.22;;;20.00;99.90;;;;;;5072882;28;20155;-66
2022/06/27 11:45:08;;;;;;;2.10;1.85;;;20.00;99.90;;;;;;5053301;28;20039;-66
2022/06/27 11:47:45;;;;;;;2.70;1.70;;;20.00;99.90;;;;;;5054535;28;20478;-66
2022/06/27 11:50:13;;;;;;;5.10;2.65;;;20.00;99.90;;;;;;5074334;28;20036;-66
2022/06/27 11:52:43;;;;;;;3.97;2.63;;;20.00;99.90;;;;;;5070126;28;20047;-66
2022/06/27 11:55:12;;;;;;;3.92;2.90;;;20.00;99.90;;;;;;5057714;28;20052;-66
2022/06/27 11:57:43;;;;;;;3.50;2.60;;;20.00;99.90;;;;;;5073598;28;20059;-66
2022/06/27 12:00:18;;;;;;;4.93;2.85;;;19.90;99.90;;;;;;5070994;28;20447;-66
2022/06/27 12:02:44;;;;;;;4.07;3.20;;;19.90;99.90;;;;;;5070602;28;20047;-66
2022/06/27 12:05:12;;;;;;;5.45;3.28;;;19.90;99.90;;;;;;5053122;28;20047;-66
2022/06/27 12:07:56;;;;;;;3.33;3.03;;;19.90;99.90;;;;;;5072157;28;20055;-66
2022/06/27 12:13:31;;;;;;;3.63;2.92;;;19.90;99.90;;;;;;5057066;28;20056;-66
2022/06/27 12:16:00;;;;;;;3.53;3.22;;;20.00;99.90;;;;;;5057179;28;20043;-66
2022/06/27 12:18:34;;;;;;;3.97;2.63;;;20.10;99.90;;;;;;5054466;28;20048;-66
2022/06/27 12:21:00;;;;;;;5.18;3.58;;;20.20;99.90;;;;;;5076539;28;20036;-66
2022/06/27 12:23:26;;;;;;;3.88;3.35;;;20.30;99.90;;;;;;5055522;28;20058;-66
2022/06/27 12:25:52;;;;;;;2.92;2.72;;;20.40;99.90;;;;;;5075720;28;20040;-66
2022/06/27 12:28:18;;;;;;;4.57;3.05;;;20.40;99.90;;;;;;5071267;28;20047;-66
2022/06/27 12:30:43;;;;;;;3.85;3.45;;;20.50;99.90;;;;;;5054059;28;20067;-66
2022/06/27 12:33:09;;;;;;;3.70;3.35;;;20.50;99.90;;;;;;5071423;28;20028;-66
2022/06/27 12:35:35;;;;;;;3.88;2.85;;;20.60;99.90;;;;;;5059635;28;20313;-66
2022/06/27 12:38:01;;;;;;;4.85;4.38;;;20.70;99.90;;;;;;5040902;28;20079;-66
2022/06/27 12:40:27;;;;;;;4.68;4.28;;;20.70;99.90;;;;;;5054085;28;20048;-65
2022/06/27 12:42:53;;;;;;;3.97;3.67;;;20.80;99.90;;;;;;5072142;28;20552;-66
2022/06/27 12:45:19;;;;;;;4.28;3.88;;;20.70;99.90;;;;;;5054086;28;20512;-66
2022/06/27 12:47:45;;;;;;;4.70;4.30;;;20.70;99.90;;;;;;5072449;28;20105;-66
2022/06/27 12:50:10;;;;;;;5.45;4.22;;;20.60;99.90;;;;;;5071637;28;20118;-66
2022/06/27 12:52:37;;;;;;;5.75;4.90;;;20.60;99.90;;;;;;5057185;28;20477;-66
2022/06/27 12:55:03;;;;;;;5.32;4.50;;;20.50;99.90;;;;;;5062417;28;20048;-66
2022/06/27 12:57:29;;;;;;;5.78;4.30;;;20.40;99.90;;;;;;5057238;28;20067;-66
2022/06/27 12:59:54;;;;;;;4.55;4.15;;;20.20;99.90;;;;;;5073126;28;20551;-66
2022/06/27 13:02:20;;;;;;;4.40;4.00;;;20.10;99.90;;;;;;5058258;28;20047;-66